Terminal Aerodrome Forecast
Issued by NWS

Home | Current Version | Previous Version | Text Only | Print | Product List | Glossary On
Versions: 1 2 3 4 5 6 7 8 9 10 11 12
000
FTUS45 KREV 201131
TAFTRK
TAF
KTRK 201131Z 2012/2112 VRB04KT 6SM HZ SCT030
     FM202100 26008G15KT 6SM FU HZ SCT040
     FM210300 VRB03KT P6SM SKC=

USA.gov is the U.S. government's official web portal to all federal, state and local government web resources and services.